createdAt,value
2022-12-02T00:01:45.590Z,38.58
2022-12-02T00:06:53.143Z,36.75
2022-12-02T00:11:56.720Z,35.53
2022-12-02T00:17:00.270Z,36.08
2022-12-02T00:22:05.127Z,34.33
2022-12-02T00:27:08.665Z,34.35
2022-12-02T00:32:12.204Z,34.10
2022-12-02T00:37:17.132Z,33.58
2022-12-02T00:42:20.656Z,36.15
2022-12-02T00:47:24.204Z,34.67
2022-12-02T00:52:29.114Z,33.42
2022-12-02T00:57:32.664Z,32.60
2022-12-02T01:02:37.946Z,32.58
2022-12-02T01:07:43.065Z,31.92
2022-12-02T01:12:46.883Z,32.78
2022-12-02T01:17:50.429Z,34.35
2022-12-02T01:22:55.527Z,35.25
2022-12-02T01:27:59.038Z,33.30
2022-12-02T01:33:02.556Z,32.38
2022-12-02T01:38:07.469Z,33.85
2022-12-02T01:43:12.252Z,33.22
2022-12-02T01:48:15.987Z,32.55
2022-12-02T01:53:21.053Z,32.85
2022-12-02T01:58:27.633Z,33.90
2022-12-02T02:03:31.331Z,32.65
2022-12-02T02:08:36.232Z,31.23
2022-12-02T02:13:40.122Z,32.25
2022-12-02T02:18:44.261Z,30.75
2022-12-02T02:23:49.313Z,31.73
2022-12-02T02:28:53.247Z,31.90
2022-12-02T02:33:57.103Z,31.40
2022-12-02T02:39:02.931Z,31.30
2022-12-02T02:44:07.022Z,29.38
2022-12-02T02:49:11.068Z,29.77
2022-12-02T02:54:16.222Z,27.50
2022-12-02T02:59:20.004Z,24.92
2022-12-02T03:04:26.006Z,23.27
2022-12-02T03:09:31.322Z,26.45
2022-12-02T03:14:35.096Z,22.50
2022-12-02T03:19:39.847Z,23.63
2022-12-02T03:24:45.381Z,22.13
2022-12-02T03:29:49.034Z,22.23
2022-12-02T03:34:53.064Z,21.98
2022-12-02T03:39:58.403Z,22.70
2022-12-02T03:45:02.782Z,22.85
2022-12-02T03:50:07.611Z,22.02
2022-12-02T03:55:13.070Z,21.48
2022-12-02T04:00:17.330Z,22.33
2022-12-02T04:05:20.838Z,20.52
2022-12-02T04:10:26.187Z,21.77
2022-12-02T04:15:30.087Z,23.55
2022-12-02T04:20:33.640Z,24.17
2022-12-02T04:25:38.496Z,22.38
2022-12-02T04:30:42.217Z,25.17
2022-12-02T04:35:45.796Z,24.17
2022-12-02T04:40:50.859Z,20.77
2022-12-02T04:45:54.436Z,21.27
2022-12-02T04:50:58.006Z,19.30
2022-12-02T04:56:02.851Z,19.73
2022-12-02T05:01:06.426Z,20.25
2022-12-02T05:06:09.974Z,18.27
2022-12-02T05:11:14.822Z,19.65
2022-12-02T05:16:18.369Z,20.70
2022-12-02T05:21:22.044Z,19.73
2022-12-02T05:26:26.958Z,16.40
2022-12-02T05:31:30.593Z,18.75
2022-12-02T05:36:34.304Z,16.90
2022-12-02T05:41:39.382Z,17.67
2022-12-02T05:46:43.016Z,18.17
2022-12-02T05:51:50.682Z,17.08
2022-12-02T05:56:59.059Z,17.08
2022-12-02T06:02:02.992Z,17.48
2022-12-02T06:07:12.842Z,19.48
2022-12-02T06:12:19.387Z,18.92
2022-12-02T06:17:23.167Z,19.88
2022-12-02T06:22:28.968Z,20.17
2022-12-02T06:27:34.574Z,19.23
2022-12-02T06:32:40.222Z,20.85
2022-12-02T06:37:44.331Z,19.27
2022-12-02T06:42:49.426Z,19.52
2022-12-02T06:48:04.799Z,17.55
2022-12-02T06:53:26.266Z,20.83
2022-12-02T06:58:41.796Z,19.63
2022-12-02T07:03:47.799Z,19.85
2022-12-02T07:08:51.451Z,20.48
2022-12-02T07:13:56.475Z,21.50
2022-12-02T07:19:01.209Z,22.02
2022-12-02T07:24:05.040Z,21.65
2022-12-02T07:29:15.982Z,19.52
2022-12-02T07:34:19.911Z,20.38
2022-12-02T07:39:23.509Z,19.50
2022-12-02T07:44:28.504Z,20.75
2022-12-02T07:49:32.007Z,20.17
2022-12-02T07:54:36.235Z,20.42
2022-12-02T07:59:41.156Z,19.65
2022-12-02T08:04:44.779Z,24.90
2022-12-02T08:09:48.437Z,20.10
2022-12-02T08:14:53.823Z,20.08
2022-12-02T08:19:57.571Z,19.05
2022-12-02T08:25:01.227Z,20.70
2022-12-02T08:30:07.807Z,22.13
2022-12-02T08:35:13.003Z,20.13
2022-12-02T08:40:16.625Z,20.35
2022-12-02T08:45:21.651Z,21.08
2022-12-02T08:50:25.665Z,22.67
2022-12-02T08:55:29.715Z,21.23
2022-12-02T09:00:38.998Z,23.05
2022-12-02T09:05:43.068Z,23.40
2022-12-02T09:10:46.728Z,22.90
2022-12-02T09:15:51.890Z,23.70
2022-12-02T09:20:55.579Z,21.98
2022-12-02T09:25:59.278Z,23.08
2022-12-02T09:31:04.442Z,21.42
2022-12-02T09:36:08.832Z,21.23
2022-12-02T09:41:12.471Z,22.45
2022-12-02T09:46:23.024Z,22.33
2022-12-02T09:51:28.314Z,22.52
2022-12-02T09:56:32.403Z,21.85
2022-12-02T10:01:37.618Z,21.83
2022-12-02T10:06:42.268Z,20.90
2022-12-02T10:11:46.522Z,18.67
2022-12-02T10:16:53.287Z,19.67
2022-12-02T10:21:56.892Z,19.85
2022-12-02T10:27:00.481Z,19.83
2022-12-02T10:32:09.069Z,20.88
2022-12-02T10:37:19.257Z,19.10
2022-12-02T10:42:24.164Z,13.43
2022-12-02T10:47:29.134Z,19.05
2022-12-02T10:52:34.973Z,19.33
2022-12-02T10:57:38.862Z,19.13
2022-12-02T11:02:47.518Z,17.48
2022-12-02T11:07:57.430Z,18.17
2022-12-02T11:13:21.456Z,18.17
2022-12-02T11:18:58.360Z,16.77
2022-12-02T11:24:37.130Z,16.80
2022-12-02T11:29:42.619Z,18.65
2022-12-02T11:40:59.084Z,18.77
2022-12-02T11:46:05.253Z,18.45
2022-12-02T11:51:31.006Z,20.70
2022-12-02T11:56:39.190Z,18.58
2022-12-02T12:01:42.788Z,18.13
2022-12-02T12:06:57.353Z,19.20
2022-12-02T12:12:09.368Z,17.70
2022-12-02T12:17:30.729Z,18.45
2022-12-02T12:22:35.812Z,17.75
2022-12-02T12:27:39.823Z,17.98
2022-12-02T12:32:43.363Z,16.63
2022-12-02T12:37:50.409Z,13.10
2022-12-02T12:42:54.174Z,16.33
2022-12-02T12:47:57.709Z,14.77
2022-12-02T12:53:02.627Z,15.27
2022-12-02T12:58:06.167Z,16.00
2022-12-02T13:03:09.803Z,15.25
2022-12-02T13:08:14.768Z,15.60
2022-12-02T13:13:18.378Z,14.85
2022-12-02T13:18:21.905Z,13.48
2022-12-02T13:23:26.812Z,13.10
2022-12-02T13:28:31.369Z,12.75
2022-12-02T13:33:35.103Z,13.27
2022-12-02T13:38:40.072Z,13.70
2022-12-02T13:43:43.842Z,14.25
2022-12-02T13:48:47.473Z,14.90
2022-12-02T13:53:58.584Z,14.18
2022-12-02T13:59:02.762Z,14.07
2022-12-02T14:04:06.536Z,15.98
2022-12-02T14:09:11.555Z,14.60
2022-12-02T14:14:15.120Z,16.00
2022-12-02T14:19:18.623Z,24.48
2022-12-02T14:24:23.525Z,27.80
2022-12-02T14:29:27.185Z,25.52
2022-12-02T14:34:30.759Z,28.15
2022-12-02T14:39:35.885Z,30.33
2022-12-02T14:44:39.438Z,30.23
2022-12-02T14:49:45.571Z,31.13
2022-12-02T14:54:51.128Z,31.85
2022-12-02T14:59:54.906Z,32.13
2022-12-02T15:04:58.429Z,30.85
2022-12-02T15:10:03.272Z,32.28
2022-12-02T15:15:36.572Z,33.95
2022-12-02T15:20:32.294Z,33.63
2022-12-02T15:25:37.197Z,37.85
2022-12-02T15:30:40.925Z,34.83
2022-12-02T15:35:44.467Z,33.58
2022-12-02T15:40:49.401Z,33.75
2022-12-02T15:45:53.815Z,33.92
2022-12-02T15:50:57.851Z,35.65
2022-12-02T15:56:02.733Z,33.35
2022-12-02T16:01:06.410Z,31.65
2022-12-02T16:06:10.081Z,34.30
2022-12-02T16:11:15.588Z,30.50
2022-12-02T16:16:19.267Z,31.45
2022-12-02T16:21:22.940Z,31.50
2022-12-02T16:26:27.946Z,31.98
2022-12-02T16:31:31.723Z,29.17
2022-12-02T16:36:35.523Z,28.80
2022-12-02T16:41:40.527Z,28.83
2022-12-02T16:46:45.670Z,26.70
2022-12-02T16:51:49.349Z,25.80
2022-12-02T16:56:56.183Z,28.23
2022-12-02T17:02:00.174Z,28.58
2022-12-02T17:07:03.781Z,28.02
2022-12-02T17:12:08.964Z,31.00
2022-12-02T17:17:37.856Z,29.90
2022-12-02T17:22:36.476Z,29.80
2022-12-02T17:27:41.901Z,30.52
2022-12-02T17:32:45.504Z,29.05
2022-12-02T17:37:49.148Z,37.45
2022-12-02T17:42:54.051Z,30.80
2022-12-02T17:47:57.658Z,31.40
2022-12-02T17:53:01.276Z,28.33
2022-12-02T17:58:06.156Z,26.83
2022-12-02T18:03:09.921Z,25.75
2022-12-02T18:08:14.223Z,25.77
2022-12-02T18:13:20.070Z,19.88
2022-12-02T18:18:24.236Z,24.98
2022-12-02T18:23:28.172Z,25.58
2022-12-02T18:28:33.078Z,24.08
2022-12-02T18:33:36.875Z,22.27
2022-12-02T18:38:40.467Z,21.48
2022-12-02T18:43:45.387Z,19.92
2022-12-02T18:48:49.059Z,19.25
2022-12-02T18:53:52.647Z,18.55
2022-12-02T18:58:57.555Z,18.25
2022-12-02T19:04:01.118Z,20.27
2022-12-02T19:09:05.615Z,20.10
2022-12-02T19:14:10.552Z,18.60
2022-12-02T19:19:14.153Z,18.85
2022-12-02T19:24:17.814Z,17.98
2022-12-02T19:29:22.773Z,17.02
2022-12-02T19:34:26.345Z,15.85
2022-12-02T19:39:29.942Z,15.57
2022-12-02T19:44:35.030Z,16.40
2022-12-02T19:49:38.589Z,16.73
2022-12-02T19:54:46.561Z,15.55
2022-12-02T19:59:54.592Z,15.68
2022-12-02T20:04:58.453Z,17.08
2022-12-02T20:10:02.131Z,15.65
2022-12-02T20:15:08.702Z,14.55
2022-12-02T20:20:14.501Z,15.82
2022-12-02T20:25:18.413Z,15.68
2022-12-02T20:30:24.189Z,15.30
2022-12-02T20:35:27.963Z,14.57
2022-12-02T20:40:31.670Z,14.05
2022-12-02T20:45:36.520Z,14.55
2022-12-02T20:50:41.006Z,14.57
2022-12-02T20:55:44.632Z,13.93
2022-12-02T21:00:49.621Z,14.32
2022-12-02T21:05:53.250Z,14.40
2022-12-02T21:10:56.847Z,14.02
2022-12-02T21:16:02.188Z,15.48
2022-12-02T21:21:05.982Z,14.30
2022-12-02T21:26:09.599Z,14.05
2022-12-02T21:31:16.152Z,14.00
2022-12-02T21:36:19.966Z,15.48
2022-12-02T21:41:23.636Z,15.02
2022-12-02T21:46:28.824Z,14.95
2022-12-02T21:51:32.452Z,15.43
2022-12-02T21:56:37.045Z,15.05
2022-12-02T22:01:43.388Z,17.15
2022-12-02T22:06:47.450Z,14.18
2022-12-02T22:11:51.019Z,15.32
2022-12-02T22:16:55.944Z,15.32
2022-12-02T22:21:59.563Z,15.80
2022-12-02T22:27:03.141Z,13.38
2022-12-02T22:32:08.502Z,15.70
2022-12-02T22:37:12.741Z,14.30
2022-12-02T22:42:16.224Z,14.40
2022-12-02T22:47:22.013Z,15.32
2022-12-02T22:52:25.487Z,15.00
2022-12-02T22:57:28.968Z,16.15
2022-12-02T23:02:34.012Z,14.82
2022-12-02T23:07:37.663Z,15.27
2022-12-02T23:12:41.204Z,16.63
2022-12-02T23:17:46.010Z,16.38
2022-12-02T23:22:49.501Z,16.27
2022-12-02T23:27:52.925Z,14.52
2022-12-02T23:32:57.858Z,16.98
2022-12-02T23:38:01.450Z,15.73
2022-12-02T23:43:04.994Z,15.52
2022-12-02T23:48:10.203Z,16.00
2022-12-02T23:53:13.696Z,16.52
2022-12-02T23:58:17.287Z,15.80
